Time;durP1;ratioP1;P1;durP2;ratioP2;P2;SDS_P1;SDS_P2;PMS_P1;PMS_P2;Temp;Humidity;BMP_temperature;BMP_pressure;BME280_temperature;BME280_humidity;BME280_pressure;Samples;Min_cycle;Max_cycle;Signal;HPM_P1;HPM_P2
2021/10/10 00:01:40;;;;;;;;;;;16.10;99.90;;;;;;5036675;28;896;-43
2021/10/10 00:04:08;;;;;;;;;;;16.10;99.90;;;;;;5036545;28;848;-43
2021/10/10 00:06:35;;;;;;;;;;;16.10;99.90;;;;;;5034762;28;1102;-43
2021/10/10 00:09:02;;;;;;;;;;;16.10;99.90;;;;;;5036569;28;769;-43
2021/10/10 00:11:28;;;;;;;;;;;16.00;99.90;;;;;;5036634;28;817;-43
2021/10/10 00:13:55;;;;;;;;;;;16.00;99.90;;;;;;5036544;28;859;-43
2021/10/10 00:16:22;;;;;;;;;;;16.00;99.90;;;;;;5036584;28;1967;-43
2021/10/10 00:18:49;;;;;;;;;;;16.00;99.90;;;;;;5036449;28;983;-43
2021/10/10 00:21:14;;;;;;;;;;;16.00;99.90;;;;;;5036598;28;755;-43
2021/10/10 00:23:40;;;;;;;;;;;16.00;99.90;;;;;;5036533;28;801;-43
2021/10/10 00:26:06;;;;;;;;;;;15.90;99.90;;;;;;5036534;28;859;-43
2021/10/10 00:28:31;;;;;;;;;;;15.90;99.90;;;;;;5039968;28;824;-43
2021/10/10 00:30:58;;;;;;;;;;;15.80;99.90;;;;;;5040732;28;749;-43
2021/10/10 00:33:25;;;;;;;;;;;15.90;99.90;;;;;;5040278;28;779;-43
2021/10/10 00:35:52;;;;;;;;;;;15.90;99.90;;;;;;5022340;28;1898;-43
2021/10/10 00:38:17;;;;;;;;;;;15.80;99.90;;;;;;5040141;28;995;-43
2021/10/10 00:40:44;;;;;;;;;;;15.80;99.90;;;;;;5040927;28;1343;-43
2021/10/10 00:43:10;;;;;;;;;;;15.80;99.90;;;;;;5040144;28;885;-43
2021/10/10 00:45:35;;;;;;;;;;;15.80;99.90;;;;;;5022672;28;1415;-43
2021/10/10 00:48:02;;;;;;;;;;;15.70;99.90;;;;;;5039995;28;853;-43
2021/10/10 00:50:29;;;;;;;;;;;15.70;99.90;;;;;;5040166;28;891;-43
2021/10/10 00:52:56;;;;;;;;;;;15.70;99.90;;;;;;5039953;28;990;-43
2021/10/10 00:58:13;;;;;;;;;;;15.70;99.90;;;;;;5068058;22;1882;-42
2021/10/10 01:00:39;;;;;;;;;;;15.70;99.90;;;;;;5059725;28;831;-43
2021/10/10 01:03:05;;;;;;;;;;;15.70;99.90;;;;;;5059736;28;869;-43
2021/10/10 01:05:31;;;;;;;;;;;15.70;99.90;;;;;;5059689;28;880;-43
2021/10/10 01:07:58;;;;;;;;;;;15.60;99.90;;;;;;5042278;28;1457;-43
2021/10/10 01:10:25;;;;;;;;;;;15.60;99.90;;;;;;5059660;28;884;-43
2021/10/10 01:12:50;;;;;;;;;;;15.60;99.90;;;;;;5059382;28;936;-43
2021/10/10 01:15:16;;;;;;;;;;;15.50;99.90;;;;;;5059407;28;1914;-43
2021/10/10 01:17:42;;;;;;;;;;;15.60;99.90;;;;;;5059542;28;757;-43
2021/10/10 01:20:10;;;;;;;;;;;15.50;99.90;;;;;;5059497;28;1082;-43
2021/10/10 01:22:37;;;;;;;;;;;15.50;99.90;;;;;;5059469;28;1088;-43
2021/10/10 01:25:05;;;;;;;;;;;15.50;99.90;;;;;;5059365;28;841;-43
2021/10/10 01:27:30;;;;;;;;;;;15.50;99.90;;;;;;5059294;28;772;-43
2021/10/10 01:29:56;;;;;;;;;;;15.50;99.90;;;;;;5059160;28;808;-43
2021/10/10 01:32:22;;;;;;;;;;;15.50;99.90;;;;;;5059690;28;1002;-43
2021/10/10 01:34:47;;;;;;;;;;;15.40;99.90;;;;;;5059140;28;2314;-43
2021/10/10 01:37:14;;;;;;;;;;;15.40;99.90;;;;;;5059216;28;848;-42
2021/10/10 01:39:40;;;;;;;;;;;15.40;99.90;;;;;;5058733;28;956;-42
2021/10/10 01:42:06;;;;;;;;;;;15.40;99.90;;;;;;5059509;28;812;-43
2021/10/10 01:44:34;;;;;;;;;;;15.40;99.90;;;;;;5058739;28;785;-43
2021/10/10 01:47:01;;;;;;;;;;;15.40;99.90;;;;;;5058847;28;762;-43
2021/10/10 01:49:26;;;;;;;;;;;15.40;99.90;;;;;;5058785;28;816;-42
2021/10/10 01:51:52;;;;;;;;;;;15.40;99.90;;;;;;5058863;28;974;-42
2021/10/10 01:54:19;;;;;;;;;;;15.30;99.90;;;;;;5058918;28;774;-43
2021/10/10 01:56:45;;;;;;;;;;;15.30;99.90;;;;;;5058489;28;1894;-43
2021/10/10 01:59:11;;;;;;;;;;;15.30;99.90;;;;;;5058373;28;1319;-43
2021/10/10 02:01:38;;;;;;;;;;;15.30;99.90;;;;;;5058915;28;1635;-43
2021/10/10 02:04:05;;;;;;;;;;;15.30;99.90;;;;;;5058670;28;915;-43
2021/10/10 02:06:31;;;;;;;;;;;15.30;99.90;;;;;;5058766;28;878;-43
2021/10/10 02:08:56;;;;;;;;;;;15.30;99.90;;;;;;5076957;28;840;-42
2021/10/10 02:11:22;;;;;;;;;;;15.30;99.90;;;;;;5076800;28;1523;-43
2021/10/10 02:13:49;;;;;;;;;;;15.30;99.90;;;;;;5076697;28;770;-43
2021/10/10 02:16:15;;;;;;;;;;;15.30;99.90;;;;;;5076990;28;1977;-42
2021/10/10 02:18:41;;;;;;;;;;;15.20;99.90;;;;;;5077273;28;874;-43
2021/10/10 02:21:08;;;;;;;;;;;15.20;99.90;;;;;;5076644;28;818;-43
2021/10/10 02:23:35;;;;;;;;;;;15.20;99.90;;;;;;5076644;28;859;-43
2021/10/10 02:26:01;;;;;;;;;;;15.20;99.90;;;;;;5076828;28;790;-43
2021/10/10 02:28:26;;;;;;;;;;;15.20;99.90;;;;;;5068909;28;806;-43
2021/10/10 02:30:52;;;;;;;;;;;15.10;99.90;;;;;;5058254;28;832;-43
2021/10/10 02:33:18;;;;;;;;;;;15.10;99.90;;;;;;5040107;28;860;-42
2021/10/10 02:35:43;;;;;;;;;;;15.10;99.90;;;;;;5040090;28;1960;-42
2021/10/10 02:38:11;;;;;;;;;;;15.10;99.90;;;;;;5057912;28;1168;-42
2021/10/10 02:40:39;;;;;;;;;;;15.10;99.90;;;;;;5040368;28;1456;-43
2021/10/10 02:43:05;;;;;;;;;;;15.10;99.90;;;;;;5039869;28;1014;-43
2021/10/10 02:45:32;;;;;;;;;;;15.10;99.90;;;;;;5057912;28;874;-43
2021/10/10 02:47:57;;;;;;;;;;;15.10;99.90;;;;;;5057897;28;803;-43
2021/10/10 02:50:23;;;;;;;;;;;15.10;99.90;;;;;;5057061;28;788;-43
2021/10/10 02:52:49;;;;;;;;;;;15.00;99.90;;;;;;5057729;28;757;-43
2021/10/10 02:55:15;;;;;;;;;;;15.00;99.90;;;;;;5057677;28;1899;-42
2021/10/10 02:57:41;;;;;;;;;;;15.00;99.90;;;;;;5057415;28;1069;-42
2021/10/10 03:00:08;;;;;;;;;;;15.00;99.90;;;;;;5039834;28;762;-43
2021/10/10 03:02:34;;;;;;;;;;;15.00;99.90;;;;;;5057589;28;789;-42
2021/10/10 03:05:01;;;;;;;;;;;15.00;99.90;;;;;;5057552;28;772;-42
2021/10/10 03:07:26;;;;;;;;;;;15.00;99.90;;;;;;5057509;28;797;-42
2021/10/10 03:09:52;;;;;;;;;;;15.00;99.90;;;;;;5057418;28;1486;-42
2021/10/10 03:12:18;;;;;;;;;;;15.00;99.90;;;;;;5054617;28;825;-43
2021/10/10 03:14:44;;;;;;;;;;;15.00;99.90;;;;;;5039437;28;1906;-42
2021/10/10 03:17:10;;;;;;;;;;;15.00;99.90;;;;;;5057274;28;907;-42
2021/10/10 03:19:35;;;;;;;;;;;14.90;99.90;;;;;;5057249;28;860;-43
2021/10/10 03:22:01;;;;;;;;;;;14.90;99.90;;;;;;5057223;28;833;-42
2021/10/10 03:24:28;;;;;;;;;;;14.90;99.90;;;;;;5057129;28;790;-42
2021/10/10 03:26:54;;;;;;;;;;;14.90;99.90;;;;;;5057400;28;871;-42
2021/10/10 03:29:20;;;;;;;;;;;14.90;99.90;;;;;;5056968;28;820;-42
2021/10/10 03:31:46;;;;;;;;;;;14.90;99.90;;;;;;5057095;28;817;-42
2021/10/10 03:34:13;;;;;;;;;;;14.90;99.90;;;;;;5057059;28;852;-43
2021/10/10 03:36:40;;;;;;;;;;;14.90;99.90;;;;;;5056966;28;1906;-42
2021/10/10 03:39:07;;;;;;;;;;;14.80;99.90;;;;;;5057328;28;1151;-43
2021/10/10 03:41:34;;;;;;;;;;;14.80;99.90;;;;;;5057093;28;836;-43
2021/10/10 03:43:59;;;;;;;;;;;14.80;99.90;;;;;;5056521;28;828;-42
2021/10/10 03:46:27;;;;;;;;;;;14.80;99.90;;;;;;5057062;28;836;-42
2021/10/10 03:48:53;;;;;;;;;;;14.80;99.90;;;;;;5039274;28;715;-42
2021/10/10 03:51:19;;;;;;;;;;;14.80;99.90;;;;;;5057052;28;826;-42
2021/10/10 03:56:30;;;;;;;;;;;14.70;99.90;;;;;;5056798;28;1894;-42
2021/10/10 03:58:57;;;;;;;;;;;14.80;99.90;;;;;;5056205;28;1053;-42
2021/10/10 04:01:23;;;;;;;;;;;14.70;99.90;;;;;;5056707;28;805;-42
2021/10/10 04:03:48;;;;;;;;;;;14.70;99.90;;;;;;5056965;28;878;-49
2021/10/10 04:06:15;;;;;;;;;;;14.70;99.90;;;;;;5056928;28;834;-42
2021/10/10 04:08:44;;;;;;;;;;;14.70;99.90;;;;;;5056678;28;840;-43
2021/10/10 04:11:10;;;;;;;;;;;14.70;99.90;;;;;;5056970;28;1239;-43
2021/10/10 04:13:38;;;;;;;;;;;14.70;99.90;;;;;;5021876;28;996;-42
2021/10/10 04:16:05;;;;;;;;;;;14.70;99.90;;;;;;5056096;28;1910;-43
2021/10/10 04:18:31;;;;;;;;;;;14.70;99.90;;;;;;5056251;28;745;-42
2021/10/10 04:20:59;;;;;;;;;;;14.60;99.90;;;;;;5056709;28;858;-42
2021/10/10 04:23:26;;;;;;;;;;;14.60;99.90;;;;;;5056720;28;834;-43
2021/10/10 04:25:51;;;;;;;;;;;14.60;99.90;;;;;;5038801;28;1462;-42
2021/10/10 04:28:18;;;;;;;;;;;14.60;99.90;;;;;;5056043;28;931;-42
2021/10/10 04:30:44;;;;;;;;;;;14.60;99.90;;;;;;5022015;28;862;-43
2021/10/10 04:33:11;;;;;;;;;;;14.50;99.90;;;;;;5056396;28;817;-42
2021/10/10 04:35:36;;;;;;;;;;;14.50;99.90;;;;;;5056345;28;1902;-42
2021/10/10 04:38:02;;;;;;;;;;;14.60;99.90;;;;;;5056279;28;983;-43
2021/10/10 04:40:27;;;;;;;;;;;14.50;99.90;;;;;;5063682;28;1147;-43
2021/10/10 04:42:53;;;;;;;;;;;14.50;99.90;;;;;;5074721;28;839;-42
2021/10/10 04:45:19;;;;;;;;;;;14.50;99.90;;;;;;5074356;28;1518;-42
2021/10/10 04:47:45;;;;;;;;;;;14.50;99.90;;;;;;5074766;28;903;-43
2021/10/10 04:50:12;;;;;;;;;;;14.50;99.90;;;;;;5074390;28;838;-42
2021/10/10 04:52:37;;;;;;;;;;;14.50;99.90;;;;;;5057217;28;785;-42
2021/10/10 04:55:04;;;;;;;;;;;14.50;99.90;;;;;;5039709;28;1902;-42
2021/10/10 04:57:29;;;;;;;;;;;14.50;99.90;;;;;;5074490;28;1126;-43
2021/10/10 04:59:56;;;;;;;;;;;14.50;99.90;;;;;;5055779;28;856;-42
2021/10/10 05:02:23;;;;;;;;;;;14.50;99.90;;;;;;5056043;28;833;-42
2021/10/10 05:04:50;;;;;;;;;;;14.40;99.90;;;;;;5056116;28;932;-43
2021/10/10 05:07:16;;;;;;;;;;;14.50;99.90;;;;;;5056248;28;990;-42
2021/10/10 05:09:43;;;;;;;;;;;14.50;99.90;;;;;;5055999;28;738;-43
2021/10/10 05:12:08;;;;;;;;;;;14.40;99.90;;;;;;5055989;28;734;-42
2021/10/10 05:14:35;;;;;;;;;;;14.40;99.90;;;;;;5058745;28;1910;-43
2021/10/10 05:17:00;;;;;;;;;;;14.40;99.90;;;;;;5059534;28;806;-43
2021/10/10 05:19:26;;;;;;;;;;;14.40;99.90;;;;;;5059376;28;846;-43
2021/10/10 05:21:51;;;;;;;;;;;14.40;99.90;;;;;;5059391;28;928;-42
2021/10/10 05:24:17;;;;;;;;;;;14.40;99.90;;;;;;5059378;28;814;-43
2021/10/10 05:26:43;;;;;;;;;;;14.40;99.90;;;;;;5059594;28;860;-42
2021/10/10 05:29:09;;;;;;;;;;;14.40;99.90;;;;;;5059227;28;823;-42
2021/10/10 05:31:34;;;;;;;;;;;14.40;99.90;;;;;;5059166;28;873;-42
2021/10/10 05:34:00;;;;;;;;;;;14.40;99.90;;;;;;5059235;28;817;-43
2021/10/10 05:36:27;;;;;;;;;;;14.40;99.90;;;;;;5041535;28;1959;-42
2021/10/10 05:38:53;;;;;;;;;;;14.30;99.90;;;;;;5058957;28;809;-42
2021/10/10 05:41:19;;;;;;;;;;;14.30;99.90;;;;;;5059138;28;743;-42
2021/10/10 05:43:45;;;;;;;;;;;14.30;99.90;;;;;;5041288;28;1668;-43
2021/10/10 05:46:10;;;;;;;;;;;14.30;99.90;;;;;;5059270;28;866;-43
2021/10/10 05:48:36;;;;;;;;;;;14.30;99.90;;;;;;5058871;28;924;-42
2021/10/10 05:51:01;;;;;;;;;;;14.30;99.90;;;;;;5058878;28;779;-42
2021/10/10 05:53:27;;;;;;;;;;;14.30;99.90;;;;;;5059107;28;764;-42
2021/10/10 05:55:59;;;;;;;;;;;14.30;99.90;;;;;;5059045;28;1894;-43
2021/10/10 05:58:28;;;;;;;;;;;14.30;99.90;;;;;;5058356;28;1345;-42
2021/10/10 06:00:54;;;;;;;;;;;14.30;99.90;;;;;;5058706;28;1496;-42
2021/10/10 06:03:20;;;;;;;;;;;14.30;99.90;;;;;;5058702;28;810;-43
2021/10/10 06:05:46;;;;;;;;;;;14.30;99.90;;;;;;5058638;28;1158;-42
2021/10/10 06:08:11;;;;;;;;;;;14.30;99.90;;;;;;5058652;28;804;-43
2021/10/10 06:10:37;;;;;;;;;;;14.30;99.90;;;;;;5058524;28;833;-42
2021/10/10 06:13:03;;;;;;;;;;;14.30;99.90;;;;;;5058513;28;765;-43
2021/10/10 06:15:29;;;;;;;;;;;14.30;99.90;;;;;;5058200;28;1910;-43
2021/10/10 06:17:54;;;;;;;;;;;14.30;99.90;;;;;;5058457;28;765;-43
2021/10/10 06:20:21;;;;;;;;;;;14.30;99.90;;;;;;5058437;28;880;-42
2021/10/10 06:22:48;;;;;;;;;;;14.30;99.90;;;;;;5058416;28;823;-43
2021/10/10 06:25:15;;;;;;;;;;;14.30;99.90;;;;;;5057188;28;872;-43
2021/10/10 06:27:42;;;;;;;;;;;14.30;99.90;;;;;;5058108;28;832;-42
2021/10/10 06:30:09;;;;;;;;;;;14.30;99.90;;;;;;5057887;28;761;-43
2021/10/10 06:32:38;;;;;;;;;;;14.30;99.90;;;;;;5058411;28;792;-42
2021/10/10 06:35:05;;;;;;;;;;;14.30;99.90;;;;;;5058235;28;1918;-43
2021/10/10 06:37:31;;;;;;;;;;;14.30;99.90;;;;;;5058262;28;868;-43
2021/10/10 06:39:56;;;;;;;;;;;14.30;99.90;;;;;;5057556;28;1132;-43
2021/10/10 06:42:23;;;;;;;;;;;14.30;99.90;;;;;;5058165;28;997;-43
2021/10/10 06:44:50;;;;;;;;;;;14.40;99.90;;;;;;5065690;28;1315;-43
2021/10/10 06:47:15;;;;;;;;;;;14.50;99.90;;;;;;5059278;28;808;-42
2021/10/10 06:49:41;;;;;;;;;;;14.50;99.90;;;;;;5058029;28;828;-42
2021/10/10 06:52:07;;;;;;;;;;;14.60;99.90;;;;;;5057799;28;808;-42
2021/10/10 06:54:35;;;;;;;;;;;14.60;99.90;;;;;;5057758;28;762;-42
2021/10/10 06:57:04;;;;;;;;;;;14.70;99.90;;;;;;5057649;28;1902;-43
2021/10/10 06:59:30;;;;;;;;;;;14.80;99.90;;;;;;5057122;28;1159;-43
2021/10/10 07:01:55;;;;;;;;;;;15.00;99.90;;;;;;5057566;28;766;-43
2021/10/10 07:04:21;;;;;;;;;;;15.20;99.90;;;;;;5057513;28;758;-43
2021/10/10 07:06:47;;;;;;;;;;;15.40;99.90;;;;;;5057389;28;798;-43
2021/10/10 07:09:24;;;;;;;;;;;15.60;99.90;;;;;;5051904;28;865;-43
2021/10/10 07:11:50;;;;;;;;;;;15.80;99.90;;;;;;5053221;28;807;-43
2021/10/10 07:14:16;;;;;;;;;;;16.20;99.90;;;;;;5057058;28;817;-43
2021/10/10 07:16:43;;;;;;;;;;;16.50;99.90;;;;;;5057145;28;1973;-43
2021/10/10 07:19:10;;;;;;;;;;;16.20;99.90;;;;;;5057171;28;771;-43
2021/10/10 07:21:56;;;;;;;;;;;15.80;99.90;;;;;;5057410;28;771;-43
2021/10/10 07:27:19;;;;;;;;;;;15.40;99.90;;;;;;5002647;28;1299;-42
2021/10/10 07:29:45;;;;;;;;;;;15.30;99.90;;;;;;5056732;28;830;-43
2021/10/10 07:32:11;;;;;;;;;;;15.30;99.90;;;;;;5057021;28;818;-43
2021/10/10 07:34:38;;;;;;;;;;;15.20;99.90;;;;;;5039373;28;2394;-43
2021/10/10 07:37:04;;;;;;;;;;;15.20;99.90;;;;;;5056697;28;888;-42
2021/10/10 07:39:29;;;;;;;;;;;15.10;99.90;;;;;;5056938;28;923;-43
2021/10/10 07:41:56;;;;;;;;;;;15.10;99.90;;;;;;5056800;28;920;-42
2021/10/10 07:44:23;;;;;;;;;;;15.00;99.90;;;;;;5056622;28;831;-42
2021/10/10 07:49:36;;;;;;;;;;;15.10;99.90;;;;;;5016324;28;1209;-43
2021/10/10 07:52:04;;;;;;;;;;;15.10;99.90;;;;;;5020367;28;1131;-42
2021/10/10 07:54:30;;;;;;;;;;;15.20;99.90;;;;;;5053821;28;832;-42
2021/10/10 07:56:57;;;;;;;;;;;15.30;99.90;;;;;;5056377;28;1960;-42
2021/10/10 07:59:24;;;;;;;;;;;15.90;99.90;;;;;;5072205;28;1051;-42
2021/10/10 08:01:52;;;;;;;;;;;16.30;99.90;;;;;;5062499;28;954;-43
2021/10/10 08:04:21;;;;;;;;;;;16.60;99.90;;;;;;5056662;28;1048;-42
2021/10/10 08:06:48;;;;;;;;;;;16.50;99.90;;;;;;5027974;28;1234;-43
2021/10/10 08:09:18;;;;;;;;;;;16.40;99.90;;;;;;5056925;28;834;-42
2021/10/10 08:11:44;;;;;;;;;;;16.40;99.90;;;;;;5056038;28;1091;-42
2021/10/10 08:14:12;;;;;;;;;;;16.30;99.90;;;;;;5058319;28;1156;-43
2021/10/10 08:16:38;;;;;;;;;;;16.20;99.90;;;;;;5029296;28;1910;-42
2021/10/10 08:19:04;;;;;;;;;;;16.10;99.90;;;;;;5074819;28;837;-42
2021/10/10 08:21:31;;;;;;;;;;;16.10;99.90;;;;;;5074865;28;820;-42
2021/10/10 08:24:01;;;;;;;;;;;16.10;99.90;;;;;;5074825;28;793;-43
2021/10/10 08:26:28;;;;;;;;;;;16.20;99.90;;;;;;5074822;28;753;-43
2021/10/10 08:28:55;;;;;;;;;;;16.20;99.90;;;;;;5045974;28;1335;-43
2021/10/10 08:31:23;;;;;;;;;;;16.10;99.90;;;;;;5056355;28;734;-42
2021/10/10 08:33:48;;;;;;;;;;;16.10;99.90;;;;;;5056270;28;1051;-43
2021/10/10 08:36:16;;;;;;;;;;;16.10;99.90;;;;;;5056448;28;1959;-43
2021/10/10 08:38:41;;;;;;;;;;;16.10;99.90;;;;;;5056221;28;979;-42
2021/10/10 08:41:07;;;;;;;;;;;16.10;99.90;;;;;;5056465;28;843;-43
2021/10/10 08:43:35;;;;;;;;;;;16.10;99.90;;;;;;5039196;28;1155;-43
2021/10/10 08:46:03;;;;;;;;;;;16.10;99.90;;;;;;5072626;28;1012;-42
2021/10/10 08:48:30;;;;;;;;;;;16.10;99.90;;;;;;5059933;28;1259;-42
2021/10/10 08:50:57;;;;;;;;;;;16.10;99.90;;;;;;5059803;28;1031;-43
2021/10/10 08:53:28;;;;;;;;;;;16.10;99.90;;;;;;5060040;28;975;-43
2021/10/10 08:55:55;;;;;;;;;;;16.10;99.90;;;;;;5025203;28;1907;-43
2021/10/10 08:58:22;;;;;;;;;;;16.10;99.90;;;;;;5059552;28;1270;-43
2021/10/10 09:00:50;;;;;;;;;;;16.10;99.90;;;;;;5059235;28;1028;-43
2021/10/10 09:03:16;;;;;;;;;;;16.20;99.90;;;;;;5059665;28;1110;-43
2021/10/10 09:05:42;;;;;;;;;;;16.20;99.90;;;;;;5059837;28;1257;-43
2021/10/10 09:08:09;;;;;;;;;;;16.20;99.90;;;;;;5059957;28;868;-43
2021/10/10 09:10:37;;;;;;;;;;;16.20;99.90;;;;;;5059528;28;981;-43
2021/10/10 09:13:13;;;;;;;;;;;16.20;99.90;;;;;;5059228;28;849;-43
2021/10/10 09:15:40;;;;;;;;;;;16.20;99.90;;;;;;5058728;28;1947;-43
2021/10/10 09:18:06;;;;;;;;;;;16.30;99.90;;;;;;5041821;28;1415;-43
2021/10/10 09:20:51;;;;;;;;;;;16.30;99.90;;;;;;5058621;28;826;-43
2021/10/10 09:23:16;;;;;;;;;;;16.30;99.90;;;;;;5059077;28;824;-43
2021/10/10 09:26:00;;;;;;;;;;;16.30;99.90;;;;;;5077098;28;821;-43
2021/10/10 09:28:29;;;;;;;;;;;16.40;99.90;;;;;;5070425;28;821;-43
2021/10/10 09:31:01;;;;;;;;;;;16.40;99.90;;;;;;5041349;28;1548;-43
2021/10/10 09:33:41;;;;;;;;;;;16.50;99.90;;;;;;5041738;28;825;-43
2021/10/10 09:36:10;;;;;;;;;;;16.50;99.90;;;;;;5059087;28;1898;-43
2021/10/10 09:38:45;;;;;;;;;;;16.50;99.90;;;;;;5059163;28;808;-43
2021/10/10 09:41:18;;;;;;;;;;;16.60;99.90;;;;;;5059432;28;846;-43
2021/10/10 09:44:26;;;;;;;;;;;16.60;99.90;;;;;;5058915;28;888;-43
2021/10/10 09:46:56;;;;;;;;;;;16.60;99.90;;;;;;4997253;28;1277;-43
2021/10/10 09:49:22;;;;;;;;;;;16.70;99.90;;;;;;5036094;28;1151;-43
2021/10/10 09:51:47;;;;;;;;;;;16.70;99.90;;;;;;5058986;28;767;-43
2021/10/10 09:54:13;;;;;;;;;;;16.70;99.90;;;;;;5058908;28;778;-43
2021/10/10 09:56:38;;;;;;;;;;;16.70;99.90;;;;;;5058672;28;1898;-43
2021/10/10 09:59:06;;;;;;;;;;;16.80;99.90;;;;;;5058226;28;1297;-43
2021/10/10 10:01:38;;;;;;;;;;;16.80;99.90;;;;;;5058593;28;817;-43
2021/10/10 10:04:22;;;;;;;;;;;16.80;99.90;;;;;;5058957;28;1011;-43
2021/10/10 10:06:48;;;;;;;;;;;16.90;99.90;;;;;;5058859;28;820;-43
2021/10/10 10:09:13;;;;;;;;;;;16.90;99.90;;;;;;5058608;28;801;-43
2021/10/10 10:11:43;;;;;;;;;;;16.90;99.90;;;;;;5058596;28;856;-43
2021/10/10 10:14:14;;;;;;;;;;;17.00;99.90;;;;;;5058382;28;755;-43
2021/10/10 10:16:40;;;;;;;;;;;17.00;99.90;;;;;;5058656;28;1947;-43
2021/10/10 10:19:06;;;;;;;;;;;17.00;99.90;;;;;;5058669;28;780;-43
2021/10/10 10:21:33;;;;;;;;;;;17.00;99.90;;;;;;5058445;28;789;-43
2021/10/10 10:24:01;;;;;;;;;;;17.00;99.90;;;;;;5058371;28;848;-43
2021/10/10 10:26:28;;;;;;;;;;;17.00;99.90;;;;;;5058623;28;886;-43
2021/10/10 10:28:53;;;;;;;;;;;17.00;99.90;;;;;;5040470;28;1448;-43
2021/10/10 10:31:20;;;;;;;;;;;17.00;99.90;;;;;;5058040;28;793;-43
2021/10/10 10:33:45;;;;;;;;;;;17.00;99.90;;;;;;5058104;28;856;-43
2021/10/10 10:36:11;;;;;;;;;;;17.00;99.90;;;;;;5058119;28;1894;-43
2021/10/10 10:38:46;;;;;;;;;;;17.00;99.90;;;;;;5058040;28;829;-43
2021/10/10 10:41:45;;;;;;;;;;;17.00;99.90;;;;;;5057979;28;757;-43
2021/10/10 10:44:30;;;;;;;;;;;17.10;99.90;;;;;;5057341;28;928;-43
2021/10/10 10:47:08;;;;;;;;;;;17.10;99.90;;;;;;5057797;28;1348;-43
2021/10/10 10:49:55;;;;;;;;;;;17.10;99.90;;;;;;5057787;28;976;-43
2021/10/10 10:52:23;;;;;;;;;;;17.20;99.90;;;;;;5057616;28;882;-43
2021/10/10 10:54:51;;;;;;;;;;;17.20;99.90;;;;;;5057830;28;1898;-43
2021/10/10 10:57:26;;;;;;;;;;;17.30;99.90;;;;;;5057193;28;1298;-43
2021/10/10 11:00:05;;;;;;;;;;;17.30;99.90;;;;;;5057073;28;1005;-43
2021/10/10 11:02:49;;;;;;;;;;;17.40;99.90;;;;;;5039983;28;1260;-43
2021/10/10 11:05:35;;;;;;;;;;;17.40;99.90;;;;;;5057506;28;843;-43
2021/10/10 11:08:16;;;;;;;;;;;17.40;99.90;;;;;;5057700;28;859;-43
2021/10/10 11:11:03;;;;;;;;;;;17.40;99.90;;;;;;5039187;28;1640;-43
2021/10/10 11:13:47;;;;;;;;;;;17.40;99.90;;;;;;5057568;28;809;-43
2021/10/10 11:16:14;;;;;;;;;;;17.50;99.90;;;;;;5057161;28;1959;-43
2021/10/10 11:18:53;;;;;;;;;;;17.50;99.90;;;;;;5057450;28;823;-43
2021/10/10 11:21:20;;;;;;;;;;;17.50;99.90;;;;;;5057161;28;879;-43
2021/10/10 11:23:55;;;;;;;;;;;17.50;99.90;;;;;;5057263;28;804;-43
2021/10/10 11:26:21;;;;;;;;;;;17.50;99.90;;;;;;5057141;28;821;-43
2021/10/10 11:28:51;;;;;;;;;;;17.50;99.90;;;;;;5057038;28;846;-43
2021/10/10 11:31:19;;;;;;;;;;;17.50;99.90;;;;;;5056887;28;887;-43
2021/10/10 11:34:01;;;;;;;;;;;17.50;99.90;;;;;;5056971;28;917;-43
2021/10/10 11:36:30;;;;;;;;;;;17.50;99.90;;;;;;5039299;28;1957;-43
2021/10/10 11:38:56;;;;;;;;;;;17.50;99.90;;;;;;5056930;28;975;-43
2021/10/10 11:41:22;;;;;;;;;;;17.50;99.90;;;;;;5056723;28;880;-43
2021/10/10 11:43:53;;;;;;;;;;;17.50;99.90;;;;;;5056076;28;852;-43
2021/10/10 11:46:20;;;;;;;;;;;17.50;99.90;;;;;;5056335;28;924;-43
2021/10/10 11:48:48;;;;;;;;;;;17.50;99.90;;;;;;5056804;28;820;-43
2021/10/10 11:51:39;;;;;;;;;;;17.60;99.90;;;;;;5056714;28;777;-43
2021/10/10 11:54:22;;;;;;;;;;;17.60;99.90;;;;;;5056976;28;772;-43
2021/10/10 11:56:58;;;;;;;;;;;17.70;99.90;;;;;;5056548;28;1907;-43
2021/10/10 11:59:23;;;;;;;;;;;17.80;99.90;;;;;;5056106;28;1209;-43
2021/10/10 12:01:53;;;;;;;;;;;17.80;99.90;;;;;;5056495;28;800;-43
2021/10/10 12:04:18;;;;;;;;;;;17.80;99.90;;;;;;5063282;28;1335;-43
2021/10/10 12:06:47;;;;;;;;;;;17.80;99.90;;;;;;5060452;28;888;-43
2021/10/10 12:09:13;;;;;;;;;;;17.90;99.90;;;;;;5056793;28;822;-43
2021/10/10 12:11:40;;;;;;;;;;;17.90;99.90;;;;;;5056782;28;771;-43
2021/10/10 12:14:08;;;;;;;;;;;17.90;99.90;;;;;;5056390;28;897;-43
2021/10/10 12:16:43;;;;;;;;;;;17.90;99.90;;;;;;5056322;28;1902;-43
2021/10/10 12:19:10;;;;;;;;;;;17.90;99.90;;;;;;5055242;28;797;-43
2021/10/10 12:21:37;;;;;;;;;;;17.90;99.90;;;;;;5075292;28;831;-43
2021/10/10 12:24:08;;;;;;;;;;;17.90;99.90;;;;;;5077982;28;807;-43
2021/10/10 12:26:49;;;;;;;;;;;17.90;99.90;;;;;;5059262;28;861;-43
2021/10/10 12:29:33;;;;;;;;;;;17.90;99.90;;;;;;5062800;28;1359;-43
2021/10/10 12:32:18;;;;;;;;;;;17.90;99.90;;;;;;5062011;28;899;-43
2021/10/10 12:34:44;;;;;;;;;;;17.90;99.90;;;;;;5060366;28;763;-43
2021/10/10 12:37:20;;;;;;;;;;;17.90;99.90;;;;;;5060250;28;1961;-43
2021/10/10 12:39:46;;;;;;;;;;;17.90;99.90;;;;;;5060498;28;790;-43
2021/10/10 12:42:13;;;;;;;;;;;17.90;99.90;;;;;;5060232;28;880;-43
2021/10/10 12:44:40;;;;;;;;;;;17.90;99.90;;;;;;5060338;28;833;-43
2021/10/10 12:47:07;;;;;;;;;;;17.80;99.90;;;;;;5060011;28;896;-43
2021/10/10 12:49:51;;;;;;;;;;;17.80;99.90;;;;;;5060756;28;785;-43
2021/10/10 12:52:16;;;;;;;;;;;17.80;99.90;;;;;;5056817;28;904;-43
2021/10/10 12:54:44;;;;;;;;;;;17.70;99.90;;;;;;5060176;28;798;-43
2021/10/10 12:57:13;;;;;;;;;;;17.70;99.90;;;;;;5042552;28;1910;-43
2021/10/10 12:59:39;;;;;;;;;;;17.60;99.90;;;;;;5043640;28;1085;-43
2021/10/10 13:02:08;;;;;;;;;;;17.60;99.90;;;;;;5078129;28;1605;-43
2021/10/10 13:04:35;;;;;;;;;;;17.50;99.90;;;;;;5078303;28;852;-43
2021/10/10 13:07:00;;;;;;;;;;;17.50;99.90;;;;;;5078339;28;789;-43
2021/10/10 13:09:28;;;;;;;;;;;17.50;99.90;;;;;;5078101;28;825;-43
2021/10/10 13:11:55;;;;;;;;;;;17.50;99.90;;;;;;5078310;28;884;-43
2021/10/10 13:14:23;;;;;;;;;;;17.40;99.90;;;;;;5077853;28;809;-43
2021/10/10 13:16:50;;;;;;;;;;;17.40;99.90;;;;;;5077738;28;1905;-43
2021/10/10 13:19:16;;;;;;;;;;;17.40;99.90;;;;;;5078144;28;749;-43
2021/10/10 13:21:42;;;;;;;;;;;17.40;99.90;;;;;;5077890;28;961;-43
2021/10/10 13:24:08;;;;;;;;;;;17.30;99.90;;;;;;5078155;28;786;-43
2021/10/10 13:26:34;;;;;;;;;;;17.30;99.90;;;;;;5077828;28;895;-43
2021/10/10 13:29:00;;;;;;;;;;;17.30;99.90;;;;;;5066098;28;958;-43
2021/10/10 13:31:26;;;;;;;;;;;17.30;99.90;;;;;;5059268;28;788;-43
2021/10/10 13:33:53;;;;;;;;;;;17.30;99.90;;;;;;5023992;28;997;-43
2021/10/10 13:36:20;;;;;;;;;;;17.30;99.90;;;;;;5059190;28;1944;-43
2021/10/10 13:38:45;;;;;;;;;;;17.20;99.90;;;;;;5059215;28;832;-43
2021/10/10 13:41:11;;;;;;;;;;;17.20;99.90;;;;;;5059203;28;772;-43
2021/10/10 13:43:37;;;;;;;;;;;17.20;99.90;;;;;;5059113;28;860;-43
2021/10/10 13:46:04;;;;;;;;;;;17.20;99.90;;;;;;5058588;28;782;-43
2021/10/10 13:48:31;;;;;;;;;;;17.10;99.90;;;;;;5059005;28;1507;-43
2021/10/10 13:50:58;;;;;;;;;;;17.10;99.90;;;;;;5058973;28;883;-43
2021/10/10 13:53:26;;;;;;;;;;;17.10;99.90;;;;;;5059026;28;845;-43
2021/10/10 13:55:51;;;;;;;;;;;17.10;99.90;;;;;;5059106;28;1964;-43
2021/10/10 13:58:18;;;;;;;;;;;17.10;99.90;;;;;;5058787;28;1146;-43
2021/10/10 14:00:44;;;;;;;;;;;17.10;99.90;;;;;;5058518;28;749;-43
2021/10/10 14:03:11;;;;;;;;;;;17.00;99.90;;;;;;5058750;28;816;-43
2021/10/10 14:05:40;;;;;;;;;;;17.00;99.90;;;;;;5058991;28;848;-43
2021/10/10 14:08:06;;;;;;;;;;;17.00;99.90;;;;;;5058962;28;758;-43
2021/10/10 14:10:31;;;;;;;;;;;17.00;99.90;;;;;;5058762;28;825;-43
2021/10/10 14:12:58;;;;;;;;;;;17.00;99.90;;;;;;5058728;28;782;-43
2021/10/10 14:15:25;;;;;;;;;;;17.00;99.90;;;;;;5058002;28;1910;-43
2021/10/10 14:17:52;;;;;;;;;;;17.00;99.90;;;;;;5057982;28;812;-43
2021/10/10 14:20:19;;;;;;;;;;;17.00;99.90;;;;;;5058611;28;866;-43
2021/10/10 14:22:46;;;;;;;;;;;17.00;99.90;;;;;;5058644;28;931;-43
2021/10/10 14:25:11;;;;;;;;;;;16.90;99.90;;;;;;5052516;28;782;-43
2021/10/10 14:27:37;;;;;;;;;;;16.90;99.90;;;;;;5076051;28;840;-43
2021/10/10 14:30:08;;;;;;;;;;;16.90;99.90;;;;;;5057473;28;867;-43
2021/10/10 14:32:34;;;;;;;;;;;16.90;99.90;;;;;;5076572;28;847;-43
2021/10/10 14:35:00;;;;;;;;;;;16.90;99.90;;;;;;5076438;28;1897;-43
2021/10/10 14:37:26;;;;;;;;;;;16.80;99.90;;;;;;5076472;28;975;-43
2021/10/10 14:39:56;;;;;;;;;;;16.90;99.90;;;;;;5057139;28;895;-43
2021/10/10 14:42:41;;;;;;;;;;;16.80;99.90;;;;;;5058294;28;833;-43
2021/10/10 14:50:02;;;;;;;;;;;16.80;99.90;;;;;;5058149;28;959;-43
2021/10/10 14:52:29;;;;;;;;;;;16.80;99.90;;;;;;5066480;28;1176;-43
2021/10/10 14:54:56;;;;;;;;;;;16.80;99.90;;;;;;5076405;28;850;-43
2021/10/10 14:57:23;;;;;;;;;;;16.80;99.90;;;;;;5076106;28;753;-43
2021/10/10 14:59:49;;;;;;;;;;;16.80;99.90;;;;;;5057958;28;1037;-43